Time;durP1;ratioP1;P1;durP2;ratioP2;P2;SDS_P1;SDS_P2;PMS_P1;PMS_P2;Temp;Humidity;BMP_temperature;BMP_pressure;BME280_temperature;BME280_humidity;BME280_pressure;Samples;Min_cycle;Max_cycle;Signal;HPM_P1;HPM_P2
2023/07/07 00:00:50;;;;;;;3.73;1.70;;;18.30;70.90;;;;;;4944613;28;20066;-16
2023/07/07 00:03:16;;;;;;;3.05;1.60;;;18.30;71.40;;;;;;4957075;28;20034;-16
2023/07/07 00:05:45;;;;;;;2.70;1.67;;;18.20;71.20;;;;;;4967756;28;20081;-16
2023/07/07 00:08:11;;;;;;;3.20;1.58;;;18.20;71.70;;;;;;4970140;28;20030;-16
2023/07/07 00:10:42;;;;;;;2.63;1.60;;;18.10;71.40;;;;;;4972411;28;20029;-17
2023/07/07 00:13:12;;;;;;;3.03;1.70;;;18.10;71.80;;;;;;4958857;28;20700;-16
2023/07/07 00:15:43;;;;;;;2.60;1.70;;;18.10;71.60;;;;;;4935632;28;20113;-17
2023/07/07 00:18:09;;;;;;;3.10;2.13;;;18.00;71.70;;;;;;4958854;28;20303;-16
2023/07/07 00:20:35;;;;;;;3.07;1.70;;;18.00;71.80;;;;;;4971948;28;20026;-16
2023/07/07 00:23:00;;;;;;;3.08;1.70;;;18.00;71.80;;;;;;4963900;28;20146;-16
2023/07/07 00:25:26;;;;;;;3.17;1.50;;;17.90;71.90;;;;;;4970784;28;20031;-16
2023/07/07 00:27:52;;;;;;;2.75;1.73;;;17.90;72.00;;;;;;4958166;28;20034;-17
2023/07/07 00:30:18;;;;;;;2.80;1.60;;;17.90;72.10;;;;;;4950047;28;20398;-16
2023/07/07 00:32:43;;;;;;;3.25;1.88;;;17.80;72.10;;;;;;4969011;28;20022;-17
2023/07/07 00:35:09;;;;;;;3.30;1.60;;;17.80;72.30;;;;;;4941635;28;20354;-16
2023/07/07 00:37:36;;;;;;;2.87;1.70;;;17.80;72.40;;;;;;4983604;28;20033;-16
2023/07/07 00:40:03;;;;;;;3.47;1.60;;;17.70;72.40;;;;;;4975622;28;20090;-16
2023/07/07 00:42:29;;;;;;;2.70;1.65;;;17.70;72.90;;;;;;4968245;28;20429;-16
2023/07/07 00:45:13;;;;;;;2.47;1.58;;;17.70;72.50;;;;;;4943763;28;20033;-17
2023/07/07 00:47:42;;;;;;;3.23;1.60;;;17.60;73.60;;;;;;4972218;28;20034;-17
2023/07/07 00:50:09;;;;;;;2.65;1.70;;;17.60;72.80;;;;;;4959879;28;20065;-16
2023/07/07 00:52:36;;;;;;;2.83;1.60;;;17.50;72.70;;;;;;4969854;28;20173;-16
2023/07/07 00:55:02;;;;;;;2.42;1.60;;;17.50;72.80;;;;;;4964088;28;20117;-16
2023/07/07 00:57:28;;;;;;;2.22;1.52;;;17.50;72.90;;;;;;4971827;28;20161;-16
2023/07/07 00:59:54;;;;;;;3.70;1.60;;;17.50;73.00;;;;;;4934613;28;20023;-17
2023/07/07 01:02:27;;;;;;;2.85;1.48;;;17.40;73.00;;;;;;4967636;28;20066;-17
2023/07/07 01:05:01;;;;;;;2.33;1.52;;;17.40;73.30;;;;;;4953124;28;20121;-17
2023/07/07 01:07:36;;;;;;;2.45;1.52;;;17.30;74.50;;;;;;4970259;28;20022;-17
2023/07/07 01:10:02;;;;;;;3.27;1.60;;;17.40;73.70;;;;;;4964283;28;20311;-17
2023/07/07 01:12:27;;;;;;;3.10;1.60;;;17.30;73.30;;;;;;4968615;28;20141;-17
2023/07/07 01:14:53;;;;;;;2.72;1.50;;;17.30;73.50;;;;;;4970218;28;20039;-17
2023/07/07 01:17:31;;;;;;;2.37;1.60;;;17.20;73.50;;;;;;4945493;28;20027;-16
2023/07/07 01:20:18;;;;;;;2.72;1.40;;;17.20;74.10;;;;;;4967830;28;20393;-17
2023/07/07 01:23:06;;;;;;;2.15;1.55;;;17.20;74.50;;;;;;4966894;28;20034;-17
2023/07/07 01:25:44;;;;;;;3.10;1.40;;;17.10;74.80;;;;;;4970853;28;20035;-17
2023/07/07 01:28:45;;;;;;;2.33;1.40;;;17.10;73.80;;;;;;4965786;28;20057;-17
2023/07/07 01:31:16;;;;;;;2.70;1.52;;;17.10;75.00;;;;;;4929919;28;20961;-17
2023/07/07 01:33:44;;;;;;;2.90;1.35;;;17.00;74.10;;;;;;4969002;28;20034;-17
2023/07/07 01:36:09;;;;;;;3.63;1.60;;;17.00;73.50;;;;;;4955221;28;20033;-17
2023/07/07 01:38:36;;;;;;;2.23;1.40;;;17.00;74.20;;;;;;4969325;28;20030;-17
2023/07/07 01:41:12;;;;;;;2.50;1.50;;;16.90;74.30;;;;;;4968048;28;20108;-17
2023/07/07 01:43:50;;;;;;;2.38;1.50;;;16.90;74.70;;;;;;4967466;28;20019;-17
2023/07/07 01:46:29;;;;;;;2.65;1.58;;;16.80;75.10;;;;;;4954908;28;20469;-17
2023/07/07 01:49:36;;;;;;;2.90;1.50;;;16.90;74.70;;;;;;4940994;28;20061;-17
2023/07/07 01:52:20;;;;;;;2.47;1.38;;;16.90;75.70;;;;;;4950351;28;20167;-17
2023/07/07 01:54:51;;;;;;;2.25;1.30;;;16.80;74.80;;;;;;4965110;28;20058;-17
2023/07/07 01:57:19;;;;;;;2.40;1.60;;;16.80;74.90;;;;;;4968601;28;20118;-17
2023/07/07 01:59:45;;;;;;;2.17;1.50;;;16.70;74.70;;;;;;4966568;28;20027;-17
2023/07/07 02:02:11;;;;;;;2.33;1.40;;;16.70;74.70;;;;;;4954598;28;20892;-17
2023/07/07 02:04:37;;;;;;;2.88;1.63;;;16.70;74.90;;;;;;4943020;28;20050;-17
2023/07/07 02:07:03;;;;;;;2.00;1.40;;;16.70;75.00;;;;;;4951814;28;20890;-17
2023/07/07 02:09:28;;;;;;;2.75;1.60;;;16.70;75.00;;;;;;4968928;28;20033;-17
2023/07/07 02:11:54;;;;;;;3.58;1.60;;;16.70;75.20;;;;;;4965405;28;20018;-17
2023/07/07 02:14:20;;;;;;;2.23;1.70;;;16.60;75.20;;;;;;4968471;28;20051;-17
2023/07/07 02:16:45;;;;;;;2.88;1.48;;;16.60;75.20;;;;;;4963261;28;20030;-17
2023/07/07 02:19:12;;;;;;;2.37;1.50;;;16.60;75.50;;;;;;4938487;28;20633;-17
2023/07/07 02:21:37;;;;;;;3.22;1.60;;;16.50;75.30;;;;;;4964770;28;20544;-17
2023/07/07 02:24:03;;;;;;;2.67;1.42;;;16.50;75.30;;;;;;4970877;28;20019;-17
2023/07/07 02:26:29;;;;;;;3.10;1.60;;;16.50;75.40;;;;;;4969975;28;20030;-17
2023/07/07 02:28:55;;;;;;;2.63;1.50;;;16.50;75.50;;;;;;4940601;28;20039;-17
2023/07/07 02:31:24;;;;;;;2.63;1.50;;;16.50;75.60;;;;;;4957446;28;20031;-17
2023/07/07 02:33:50;;;;;;;2.45;1.42;;;16.50;75.70;;;;;;4953125;28;20178;-17
2023/07/07 02:36:18;;;;;;;3.63;1.50;;;16.40;75.80;;;;;;4942441;28;20042;-17
2023/07/07 02:38:44;;;;;;;2.97;1.50;;;16.40;75.70;;;;;;4964633;28;20109;-17
2023/07/07 02:41:11;;;;;;;2.50;1.60;;;16.30;75.70;;;;;;4956253;28;20390;-17
2023/07/07 02:43:37;;;;;;;2.60;1.40;;;16.30;75.90;;;;;;4984357;28;20023;-17
2023/07/07 02:46:03;;;;;;;2.75;1.40;;;16.30;76.00;;;;;;4963506;28;20225;-17
2023/07/07 02:48:30;;;;;;;2.83;1.48;;;16.30;76.10;;;;;;4968096;28;20047;-17
2023/07/07 02:50:56;;;;;;;3.13;2.00;;;16.30;76.10;;;;;;4928225;28;20026;-17
2023/07/07 02:53:28;;;;;;;2.63;1.55;;;16.30;76.20;;;;;;4971322;28;20043;-17
2023/07/07 02:55:55;;;;;;;2.97;1.60;;;16.20;76.50;;;;;;4955915;28;20035;-17
2023/07/07 02:58:22;;;;;;;2.42;1.35;;;16.20;76.20;;;;;;4979604;28;20030;-16
2023/07/07 03:00:48;;;;;;;1.95;1.38;;;16.20;76.30;;;;;;4975788;28;20442;-17
2023/07/07 03:03:15;;;;;;;2.28;1.65;;;16.10;76.40;;;;;;4977030;28;20136;-17
2023/07/07 03:05:41;;;;;;;3.83;1.80;;;16.10;76.60;;;;;;4960434;28;20388;-17
2023/07/07 03:08:07;;;;;;;2.77;1.57;;;16.10;76.60;;;;;;4934500;28;20041;-17
2023/07/07 03:10:34;;;;;;;3.05;1.60;;;16.10;76.70;;;;;;4973133;28;20022;-16
2023/07/07 03:13:00;;;;;;;2.65;1.50;;;16.10;76.90;;;;;;4957023;28;20585;-16
2023/07/07 03:15:39;;;;;;;2.47;1.40;;;16.10;76.80;;;;;;4986350;28;20084;-17
2023/07/07 03:18:13;;;;;;;3.25;1.52;;;16.00;77.20;;;;;;4968246;28;20219;-17
2023/07/07 03:20:47;;;;;;;2.75;1.55;;;16.00;77.40;;;;;;4965842;28;20027;-17
2023/07/07 03:23:13;;;;;;;2.47;1.40;;;16.00;77.40;;;;;;4962102;28;20027;-17
2023/07/07 03:25:39;;;;;;;2.10;1.40;;;16.00;77.00;;;;;;4951833;28;20037;-17
2023/07/07 03:28:04;;;;;;;2.80;1.35;;;15.90;77.00;;;;;;4959986;28;20141;-17
2023/07/07 03:30:30;;;;;;;3.15;1.58;;;15.90;77.10;;;;;;4987300;28;20038;-17
2023/07/07 03:32:56;;;;;;;2.93;1.60;;;15.90;77.20;;;;;;4974405;28;20058;-17
2023/07/07 03:35:22;;;;;;;3.35;1.67;;;15.90;77.30;;;;;;4972311;28;20089;-17
2023/07/07 03:37:48;;;;;;;3.37;2.07;;;15.90;77.40;;;;;;4943659;28;20081;-17
2023/07/07 03:40:16;;;;;;;2.47;1.65;;;15.90;77.60;;;;;;4953122;28;20326;-17
2023/07/07 03:42:42;;;;;;;2.65;1.60;;;15.80;77.60;;;;;;4957503;28;20098;-17
2023/07/07 03:45:08;;;;;;;3.40;1.80;;;15.80;77.70;;;;;;4966954;28;20302;-16
2023/07/07 03:47:34;;;;;;;2.53;1.57;;;15.80;77.70;;;;;;4983767;28;20284;-17
2023/07/07 03:50:00;;;;;;;3.13;1.67;;;15.80;77.80;;;;;;4966514;28;20494;-17
2023/07/07 03:52:25;;;;;;;3.47;1.57;;;15.80;77.80;;;;;;4946711;28;20035;-17
2023/07/07 03:54:51;;;;;;;2.92;1.58;;;15.80;77.90;;;;;;4954720;28;20031;-17
2023/07/07 03:57:17;;;;;;;2.67;1.67;;;15.90;78.00;;;;;;4955839;28;20449;-17
2023/07/07 03:59:43;;;;;;;3.55;1.55;;;15.80;78.00;;;;;;4985315;28;20029;-17
2023/07/07 04:02:09;;;;;;;3.00;1.60;;;15.80;78.10;;;;;;4968413;28;20371;-17
2023/07/07 04:04:34;;;;;;;3.13;1.70;;;15.80;78.20;;;;;;4970711;28;20054;-17
2023/07/07 04:07:00;;;;;;;2.25;1.60;;;15.80;78.30;;;;;;4981193;28;20124;-17
2023/07/07 04:09:26;;;;;;;2.27;1.60;;;15.80;78.40;;;;;;4945091;28;20034;-17
2023/07/07 04:11:52;;;;;;;4.75;1.70;;;15.80;78.50;;;;;;4953924;28;20488;-17
2023/07/07 04:14:18;;;;;;;3.47;1.80;;;15.80;78.60;;;;;;4968383;28;20027;-16
2023/07/07 04:16:44;;;;;;;3.77;1.80;;;15.80;78.70;;;;;;4969044;28;20064;-17
2023/07/07 04:19:10;;;;;;;3.97;1.77;;;15.80;78.70;;;;;;4981411;28;20058;-17
2023/07/07 04:21:36;;;;;;;3.22;1.60;;;15.80;78.70;;;;;;4955776;28;20038;-17
2023/07/07 04:24:02;;;;;;;4.10;2.20;;;15.80;78.80;;;;;;4942224;28;26220;-17
2023/07/07 04:26:30;;;;;;;3.28;1.70;;;15.90;78.90;;;;;;4969191;28;20795;-17
2023/07/07 04:28:58;;;;;;;3.00;1.98;;;15.80;78.90;;;;;;4954307;28;20449;-17
2023/07/07 04:31:25;;;;;;;2.42;1.60;;;15.80;79.00;;;;;;4970622;28;20029;-16
2023/07/07 04:33:52;;;;;;;3.33;1.97;;;15.80;79.00;;;;;;4966604;28;20644;-17
2023/07/07 04:36:18;;;;;;;4.45;1.70;;;15.80;79.00;;;;;;4970870;28;20026;-16
2023/07/07 04:38:45;;;;;;;3.03;1.85;;;15.80;79.20;;;;;;4969463;28;20320;-17
2023/07/07 04:41:23;;;;;;;2.97;1.52;;;15.90;79.40;;;;;;4959639;28;20034;-17
2023/07/07 04:43:54;;;;;;;2.50;1.65;;;15.90;79.60;;;;;;4952142;28;20780;-17
2023/07/07 04:46:28;;;;;;;2.50;1.60;;;15.90;79.70;;;;;;4970775;28;20030;-17
2023/07/07 04:48:54;;;;;;;3.42;1.90;;;15.90;79.90;;;;;;4980786;28;20176;-17
2023/07/07 04:51:21;;;;;;;3.00;1.80;;;16.00;79.90;;;;;;4973750;28;20023;-16
2023/07/07 04:53:46;;;;;;;2.83;1.60;;;15.90;79.90;;;;;;4964136;28;20030;-17
2023/07/07 04:56:22;;;;;;;2.97;1.80;;;15.90;80.00;;;;;;4947184;28;20035;-17
2023/07/07 04:58:50;;;;;;;2.95;1.70;;;16.00;80.70;;;;;;4953557;28;20506;-17
2023/07/07 05:01:22;;;;;;;2.70;1.73;;;16.00;80.20;;;;;;4956053;28;20073;-17
2023/07/07 05:03:54;;;;;;;3.65;1.73;;;16.00;80.40;;;;;;4968772;28;20026;-17
2023/07/07 05:06:21;;;;;;;3.55;1.92;;;16.10;80.60;;;;;;4949639;28;20035;-17
2023/07/07 05:08:47;;;;;;;2.87;1.67;;;16.10;80.40;;;;;;4965800;28;20038;-16
2023/07/07 05:11:15;;;;;;;3.28;1.80;;;16.10;80.40;;;;;;4943880;28;20034;-17
2023/07/07 05:13:41;;;;;;;3.13;1.75;;;16.10;80.60;;;;;;4967871;28;20374;-17
2023/07/07 05:16:09;;;;;;;2.97;1.58;;;16.20;80.60;;;;;;4950446;28;20580;-17
2023/07/07 05:18:35;;;;;;;2.50;1.67;;;16.20;80.70;;;;;;4970372;28;20030;-17
2023/07/07 05:21:02;;;;;;;2.80;1.75;;;16.30;80.80;;;;;;4970381;28;20049;-17
2023/07/07 05:23:28;;;;;;;2.78;1.60;;;16.30;80.90;;;;;;4965887;28;20109;-17
2023/07/07 05:25:54;;;;;;;3.83;1.70;;;16.30;80.90;;;;;;4964998;28;20118;-17
2023/07/07 05:28:20;;;;;;;2.85;1.80;;;16.40;80.90;;;;;;4940821;28;20100;-17
2023/07/07 05:30:46;;;;;;;3.15;1.40;;;16.40;81.10;;;;;;4944005;28;20030;-17
2023/07/07 05:33:12;;;;;;;3.00;1.50;;;16.50;81.30;;;;;;4962597;28;20486;-17
2023/07/07 05:36:05;;;;;;;2.37;1.50;;;16.50;81.30;;;;;;4953129;28;20029;-17
2023/07/07 05:38:31;;;;;;;1.90;1.42;;;16.60;82.40;;;;;;4958531;28;20034;-17
2023/07/07 05:40:57;;;;;;;3.28;1.70;;;16.60;81.40;;;;;;4960293;28;20038;-17
2023/07/07 05:43:25;;;;;;;2.58;1.60;;;16.60;81.60;;;;;;4938623;28;20205;-17
2023/07/07 05:46:01;;;;;;;3.33;1.60;;;16.70;81.80;;;;;;4956956;28;20157;-17
2023/07/07 05:48:27;;;;;;;3.05;1.75;;;16.80;82.20;;;;;;4966031;28;20617;-17
2023/07/07 05:50:56;;;;;;;3.47;1.90;;;16.80;81.90;;;;;;4971456;28;20519;-17
2023/07/07 05:53:23;;;;;;;2.50;1.60;;;16.90;82.30;;;;;;4933563;28;21390;-17
2023/07/07 05:55:49;;;;;;;2.20;1.52;;;17.00;82.20;;;;;;4975517;28;20030;-17
2023/07/07 05:58:16;;;;;;;1.70;1.40;;;17.10;82.20;;;;;;4939930;28;20043;-17
2023/07/07 06:00:42;;;;;;;2.13;1.38;;;17.20;82.30;;;;;;4985613;28;20137;-16
2023/07/07 06:03:08;;;;;;;3.20;1.85;;;17.20;82.20;;;;;;4955499;28;20040;-17
2023/07/07 06:05:34;;;;;;;2.65;1.50;;;17.30;82.30;;;;;;4968072;28;20027;-17
2023/07/07 06:08:00;;;;;;;3.30;1.63;;;17.40;82.30;;;;;;4954714;28;20481;-17
2023/07/07 06:10:26;;;;;;;2.97;1.77;;;17.50;82.50;;;;;;4953909;28;20469;-17
2023/07/07 06:12:53;;;;;;;3.15;1.58;;;17.50;82.50;;;;;;4931921;28;20396;-17
2023/07/07 06:15:19;;;;;;;3.63;1.73;;;17.70;82.70;;;;;;4969162;28;20588;-17
2023/07/07 06:17:45;;;;;;;3.13;1.67;;;17.70;82.70;;;;;;4959381;28;20100;-16
2023/07/07 06:20:12;;;;;;;2.30;1.60;;;17.80;82.70;;;;;;4968292;28;20030;-17
2023/07/07 06:22:40;;;;;;;3.00;1.50;;;18.00;82.80;;;;;;4966191;28;20023;-17
2023/07/07 06:25:06;;;;;;;2.67;1.50;;;18.00;82.70;;;;;;4949508;28;20030;-17
2023/07/07 06:27:32;;;;;;;3.03;1.70;;;18.10;82.70;;;;;;4962808;28;20760;-17
2023/07/07 06:29:58;;;;;;;1.95;1.50;;;18.20;82.70;;;;;;4943329;28;20031;-17
2023/07/07 06:32:23;;;;;;;2.30;1.50;;;18.30;82.60;;;;;;4949108;28;21048;-17
2023/07/07 06:34:49;;;;;;;3.17;1.63;;;18.40;82.60;;;;;;4967319;28;20031;-17
2023/07/07 06:37:16;;;;;;;2.80;1.60;;;18.50;83.00;;;;;;4964822;28;20261;-17
2023/07/07 06:39:42;;;;;;;2.20;1.35;;;18.60;82.80;;;;;;4951013;28;20355;-16
2023/07/07 06:42:09;;;;;;;2.53;1.50;;;18.70;82.80;;;;;;4979134;28;20036;-17
2023/07/07 06:44:38;;;;;;;2.45;1.50;;;18.80;83.00;;;;;;4941133;28;20228;-17
2023/07/07 06:47:05;;;;;;;2.30;1.60;;;18.90;83.10;;;;;;4964645;28;20019;-17
2023/07/07 06:49:31;;;;;;;2.33;1.53;;;19.00;83.20;;;;;;4958909;28;20380;-16
2023/07/07 06:51:57;;;;;;;2.65;1.40;;;19.10;83.30;;;;;;4966381;28;20023;-16
2023/07/07 06:54:22;;;;;;;3.07;1.60;;;19.20;83.20;;;;;;4949163;28;20151;-17
2023/07/07 06:56:48;;;;;;;2.60;1.50;;;19.30;83.10;;;;;;4969438;28;20113;-16
2023/07/07 06:59:14;;;;;;;2.95;1.40;;;19.40;83.20;;;;;;4944928;28;20488;-17
2023/07/07 07:01:40;;;;;;;2.70;1.60;;;19.50;83.20;;;;;;4968106;28;20651;-16
2023/07/07 07:04:06;;;;;;;2.30;1.52;;;19.60;83.10;;;;;;4950140;28;20034;-17
2023/07/07 07:06:31;;;;;;;2.22;1.52;;;19.80;83.00;;;;;;4965703;28;20229;-17
2023/07/07 07:08:57;;;;;;;3.03;1.47;;;19.90;83.00;;;;;;4969190;28;20084;-17
2023/07/07 07:11:23;;;;;;;2.53;1.50;;;20.00;83.20;;;;;;4967695;28;20093;-17
2023/07/07 07:13:49;;;;;;;2.57;1.30;;;20.10;83.80;;;;;;4925880;28;20062;-17
2023/07/07 07:16:15;;;;;;;2.50;1.53;;;20.20;83.10;;;;;;4968586;28;20787;-17
2023/07/07 07:18:40;;;;;;;2.15;1.40;;;20.30;83.20;;;;;;4955031;28;20584;-17
2023/07/07 07:21:06;;;;;;;1.77;1.30;;;20.50;83.00;;;;;;4967108;28;20322;-17
2023/07/07 07:23:32;;;;;;;3.28;1.48;;;20.60;82.80;;;;;;4965473;28;20092;-17
2023/07/07 07:25:57;;;;;;;2.23;1.30;;;20.70;82.90;;;;;;4965064;28;20045;-17
2023/07/07 07:28:23;;;;;;;3.45;1.60;;;20.80;82.90;;;;;;4971156;28;20058;-17
2023/07/07 07:30:49;;;;;;;1.80;1.37;;;20.90;83.00;;;;;;4940007;28;20027;-17
2023/07/07 07:33:20;;;;;;;1.92;1.30;;;21.00;83.10;;;;;;4969984;28;20096;-17
2023/07/07 07:35:47;;;;;;;3.35;1.30;;;21.20;83.10;;;;;;4962432;28;20388;-17
2023/07/07 07:38:18;;;;;;;2.13;1.38;;;21.30;83.00;;;;;;4971719;28;20026;-17
2023/07/07 07:40:44;;;;;;;2.00;1.30;;;21.40;82.80;;;;;;4966789;28;20507;-17
2023/07/07 07:43:10;;;;;;;2.53;1.40;;;21.60;82.90;;;;;;4954506;28;20034;-17
2023/07/07 07:45:36;;;;;;;1.90;1.45;;;21.70;82.80;;;;;;4943437;28;20049;-17
2023/07/07 07:48:03;;;;;;;3.15;1.50;;;21.80;82.70;;;;;;4970809;28;20168;-17
2023/07/07 07:50:30;;;;;;;1.40;1.20;;;21.90;82.50;;;;;;4956220;28;20500;-17
2023/07/07 07:52:56;;;;;;;2.17;1.40;;;22.10;82.30;;;;;;4963240;28;20172;-17
2023/07/07 07:55:21;;;;;;;3.08;1.38;;;22.20;81.90;;;;;;4971072;28;20632;-17
2023/07/07 07:57:47;;;;;;;1.77;1.27;;;22.30;81.80;;;;;;4947089;28;20117;-17
2023/07/07 08:00:14;;;;;;;2.08;1.30;;;22.50;82.10;;;;;;4944739;28;20042;-17
2023/07/07 08:02:40;;;;;;;2.60;1.30;;;22.60;82.50;;;;;;4966567;28;20041;-17
2023/07/07 08:05:06;;;;;;;2.17;1.30;;;22.80;82.80;;;;;;4968804;28;20410;-17
2023/07/07 08:07:32;;;;;;;2.80;1.48;;;23.10;83.60;;;;;;4958992;28;20041;-17
2023/07/07 08:09:58;;;;;;;2.40;1.40;;;23.50;84.50;;;;;;4968335;28;20468;-17
2023/07/07 08:12:23;;;;;;;1.80;1.30;;;23.80;83.50;;;;;;4952382;28;20104;-17
2023/07/07 08:14:50;;;;;;;2.67;1.27;;;24.20;83.50;;;;;;4976298;28;20030;-17
2023/07/07 08:17:16;;;;;;;2.53;1.35;;;24.50;83.80;;;;;;4949724;28;20201;-17
2023/07/07 08:19:43;;;;;;;2.10;1.30;;;25.00;84.20;;;;;;4971747;28;20550;-17
2023/07/07 08:22:16;;;;;;;1.80;1.23;;;25.40;84.00;;;;;;4944261;28;20417;-17
2023/07/07 08:24:49;;;;;;;2.22;1.45;;;25.90;83.60;;;;;;4970301;28;20524;-16
2023/07/07 08:27:17;;;;;;;1.88;1.40;;;26.50;84.00;;;;;;4955568;28;20455;-17
2023/07/07 08:29:43;;;;;;;1.75;1.38;;;27.10;85.50;;;;;;4968828;28;20682;-17
2023/07/07 08:32:12;;;;;;;2.00;1.30;;;27.70;85.30;;;;;;4944312;28;20027;-17
2023/07/07 08:34:38;;;;;;;1.85;1.23;;;28.30;83.40;;;;;;4971231;28;20034;-17
2023/07/07 08:37:04;;;;;;;2.15;1.40;;;28.90;83.50;;;;;;4965701;28;20023;-17
2023/07/07 08:39:30;;;;;;;2.03;1.60;;;29.40;82.20;;;;;;4960290;28;20113;-17
2023/07/07 08:42:03;;;;;;;2.40;1.80;;;30.00;81.20;;;;;;4969588;28;20033;-17
2023/07/07 08:44:33;;;;;;;2.15;1.67;;;30.50;80.20;;;;;;4951859;28;20035;-17
2023/07/07 08:47:14;;;;;;;2.05;1.63;;;31.00;77.90;;;;;;4944801;28;20615;-16
2023/07/07 08:50:01;;;;;;;2.30;1.85;;;31.50;75.30;;;;;;4969097;28;20544;-16
2023/07/07 08:52:57;;;;;;;3.63;1.90;;;31.90;71.90;;;;;;4966749;28;20237;-17
2023/07/07 08:55:44;;;;;;;2.20;1.80;;;32.30;71.30;;;;;;4970740;28;20244;-17
2023/07/07 08:58:40;;;;;;;1.90;1.70;;;32.70;72.10;;;;;;4958619;28;20062;-17
2023/07/07 09:01:15;;;;;;;2.15;1.90;;;33.10;69.10;;;;;;4958452;28;20604;-16
2023/07/07 09:04:11;;;;;;;2.15;1.83;;;33.40;72.00;;;;;;4945687;28;20022;-17
2023/07/07 09:07:01;;;;;;;2.50;2.00;;;33.80;68.10;;;;;;4985506;28;20023;-17
2023/07/07 09:10:09;;;;;;;2.37;2.17;;;34.10;65.90;;;;;;4957587;28;20304;-17
2023/07/07 09:12:43;;;;;;;2.00;1.80;;;34.40;65.50;;;;;;4974158;28;20121;-17
2023/07/07 09:15:33;;;;;;;3.03;2.08;;;34.60;64.50;;;;;;4957950;28;20035;-17
2023/07/07 09:18:13;;;;;;;2.17;1.98;;;34.90;62.10;;;;;;4946026;28;20061;-16
2023/07/07 09:20:39;;;;;;;4.43;2.25;;;35.10;63.30;;;;;;4968595;28;20022;-17
2023/07/07 09:23:14;;;;;;;2.10;1.90;;;35.20;62.50;;;;;;4967536;28;20026;-17
2023/07/07 09:25:45;;;;;;;1.90;1.70;;;35.30;59.00;;;;;;4949561;28;20436;-17
2023/07/07 09:28:14;;;;;;;1.90;1.80;;;35.40;58.80;;;;;;4969110;28;20117;-17
2023/07/07 09:31:06;;;;;;;2.63;2.10;;;35.50;59.10;;;;;;4974549;28;20027;-17
2023/07/07 09:33:32;;;;;;;2.10;1.80;;;35.60;54.90;;;;;;4953712;28;20030;-17
2023/07/07 09:36:06;;;;;;;1.92;1.80;;;35.70;58.20;;;;;;4943507;28;20195;-16
2023/07/07 09:39:01;;;;;;;3.08;2.30;;;35.80;54.80;;;;;;4973224;28;20724;-17
2023/07/07 09:41:29;;;;;;;2.95;2.00;;;35.90;53.80;;;;;;4962014;28;20030;-17
2023/07/07 09:44:25;;;;;;;2.40;2.20;;;36.00;54.00;;;;;;4969750;28;20077;-17
2023/07/07 09:47:22;;;;;;;2.40;2.20;;;36.10;53.70;;;;;;4946984;28;20037;-17
2023/07/07 09:49:56;;;;;;;2.50;2.08;;;36.20;52.60;;;;;;4937515;28;20034;-17
2023/07/07 09:52:42;;;;;;;1.75;1.65;;;36.30;53.10;;;;;;4984176;28;20026;-17
2023/07/07 09:55:14;;;;;;;2.30;2.10;;;36.40;49.40;;;;;;4978909;28;20422;-17
2023/07/07 09:57:46;;;;;;;2.50;2.10;;;36.50;50.40;;;;;;4952723;28;20049;-17
2023/07/07 10:00:17;;;;;;;2.50;2.30;;;36.60;50.90;;;;;;4967102;28;20496;-17
2023/07/07 10:02:45;;;;;;;2.60;2.20;;;36.70;49.90;;;;;;4930330;28;20042;-17
2023/07/07 10:05:15;;;;;;;2.53;2.20;;;36.80;51.10;;;;;;4941767;28;20042;-17
2023/07/07 10:07:42;;;;;;;2.53;2.30;;;36.90;51.30;;;;;;4971021;28;20073;-17
2023/07/07 10:10:13;;;;;;;2.63;2.20;;;37.00;50.80;;;;;;4970176;28;20232;-17
2023/07/07 10:12:40;;;;;;;2.42;2.22;;;37.20;49.40;;;;;;4954489;28;20512;-17
2023/07/07 10:15:37;;;;;;;2.50;2.30;;;37.30;49.90;;;;;;4966255;28;20347;-16
2023/07/07 10:18:15;;;;;;;2.30;2.10;;;37.40;47.10;;;;;;4949749;28;20401;-17
2023/07/07 10:20:41;;;;;;;2.53;2.28;;;37.60;47.50;;;;;;4941525;28;20026;-17
2023/07/07 10:23:11;;;;;;;2.50;2.30;;;37.70;48.70;;;;;;4964974;28;20023;-17
2023/07/07 10:25:39;;;;;;;2.70;2.10;;;37.80;46.70;;;;;;4966940;28;20117;-17
2023/07/07 10:28:09;;;;;;;2.40;2.20;;;37.90;47.50;;;;;;4956035;28;21961;-17
2023/07/07 10:30:36;;;;;;;2.40;2.20;;;38.10;46.90;;;;;;4967166;28;20023;-18
2023/07/07 10:33:02;;;;;;;2.42;2.20;;;38.30;46.80;;;;;;4953685;28;20026;-17
2023/07/07 10:35:32;;;;;;;2.65;2.25;;;38.40;46.80;;;;;;4966614;28;20038;-17
2023/07/07 10:38:03;;;;;;;2.38;2.17;;;38.60;45.20;;;;;;4939923;28;20031;-17
2023/07/07 10:40:29;;;;;;;3.30;2.10;;;38.70;45.20;;;;;;4965801;28;20350;-17
2023/07/07 10:42:56;;;;;;;2.53;2.10;;;38.70;44.30;;;;;;4949929;28;20350;-17
2023/07/07 10:45:23;;;;;;;2.40;2.20;;;38.90;44.50;;;;;;4965359;28;20054;-17
2023/07/07 10:47:49;;;;;;;3.08;2.30;;;38.90;44.00;;;;;;4942906;28;20477;-17
2023/07/07 10:50:23;;;;;;;2.95;2.50;;;38.90;43.80;;;;;;4963859;28;20057;-17
2023/07/07 10:53:00;;;;;;;2.67;2.47;;;39.10;43.20;;;;;;4935701;28;20038;-18
2023/07/07 10:55:49;;;;;;;2.72;2.35;;;39.20;41.30;;;;;;4967097;28;20252;-17
2023/07/07 10:58:23;;;;;;;2.63;2.42;;;39.20;40.40;;;;;;4954247;28;20041;-17
2023/07/07 11:00:52;;;;;;;2.20;2.00;;;39.20;41.90;;;;;;4946637;28;20050;-17
2023/07/07 11:03:31;;;;;;;2.60;2.40;;;39.30;41.60;;;;;;4953651;28;20047;-17
2023/07/07 11:06:12;;;;;;;2.70;2.10;;;39.30;39.50;;;;;;4976843;28;20259;-17
2023/07/07 11:09:02;;;;;;;2.70;1.83;;;39.40;40.90;;;;;;4944619;28;20501;-17
2023/07/07 11:11:45;;;;;;;2.75;2.55;;;39.40;40.40;;;;;;4983584;28;20033;-17
2023/07/07 11:14:50;;;;;;;2.25;2.05;;;39.40;38.80;;;;;;4972142;28;20050;-17
2023/07/07 11:17:46;;;;;;;2.20;2.00;;;39.40;39.20;;;;;;4951496;28;20567;-17
2023/07/07 11:20:50;;;;;;;2.70;2.30;;;39.40;39.60;;;;;;4972618;28;20591;-17
2023/07/07 11:23:46;;;;;;;2.25;2.05;;;39.40;39.10;;;;;;4947419;28;20041;-17
2023/07/07 11:26:40;;;;;;;2.75;2.30;;;39.50;39.10;;;;;;4968944;28;20034;-17
2023/07/07 11:29:27;;;;;;;3.30;2.40;;;39.60;38.60;;;;;;4969172;28;20030;-17
2023/07/07 11:32:15;;;;;;;2.45;2.25;;;39.70;37.70;;;;;;4950281;28;20184;-17
2023/07/07 11:35:16;;;;;;;2.77;2.40;;;39.80;37.40;;;;;;4951455;28;20078;-18
2023/07/07 11:38:05;;;;;;;2.55;2.20;;;39.80;37.40;;;;;;4966824;28;20117;-18
2023/07/07 11:40:46;;;;;;;3.00;2.70;;;39.80;38.30;;;;;;4973263;28;20058;-17
2023/07/07 11:43:11;;;;;;;2.88;2.40;;;39.90;38.00;;;;;;4970392;28;20504;-17
2023/07/07 11:46:14;;;;;;;2.57;2.37;;;39.80;38.40;;;;;;4957593;28;20127;-17
2023/07/07 11:49:17;;;;;;;2.38;2.10;;;39.80;36.80;;;;;;4953230;28;20034;-18
2023/07/07 11:52:04;;;;;;;2.90;2.40;;;39.80;37.10;;;;;;4972323;28;20042;-17
2023/07/07 11:54:51;;;;;;;2.58;2.30;;;39.90;38.00;;;;;;4943698;28;20143;-17
2023/07/07 11:57:42;;;;;;;2.78;2.58;;;39.90;37.30;;;;;;4971962;28;20054;-17
2023/07/07 12:00:14;;;;;;;2.43;2.23;;;39.90;37.10;;;;;;4983004;28;20528;-17
2023/07/07 12:03:13;;;;;;;3.13;2.35;;;39.90;36.30;;;;;;4952348;28;20046;-17
2023/07/07 12:05:40;;;;;;;2.13;1.90;;;39.90;37.10;;;;;;4955798;28;20585;-18
2023/07/07 12:08:15;;;;;;;2.47;2.28;;;39.90;37.00;;;;;;4970438;28;20108;-17
2023/07/07 12:10:50;;;;;;;2.72;2.42;;;40.00;35.50;;;;;;4944999;28;20030;-18
2023/07/07 12:13:30;;;;;;;3.37;2.30;;;40.00;35.90;;;;;;4984626;28;20030;-17
2023/07/07 12:16:21;;;;;;;2.50;2.30;;;40.00;35.50;;;;;;4966471;28;20406;-18
2023/07/07 12:18:53;;;;;;;2.80;2.60;;;40.10;36.40;;;;;;4949433;28;20034;-17
2023/07/07 12:21:26;;;;;;;2.20;2.00;;;40.10;35.70;;;;;;4952423;28;20023;-17
2023/07/07 12:23:54;;;;;;;2.53;2.33;;;40.10;34.90;;;;;;4964095;28;20487;-17
2023/07/07 12:26:27;;;;;;;3.10;2.13;;;40.10;35.00;;;;;;4945299;28;20034;-17
2023/07/07 12:28:59;;;;;;;2.63;2.10;;;40.10;35.40;;;;;;4965080;28;20065;-17
2023/07/07 12:31:27;;;;;;;2.40;2.13;;;40.10;34.80;;;;;;4969353;28;20181;-17
2023/07/07 12:33:53;;;;;;;2.70;2.22;;;40.00;35.10;;;;;;4959419;28;20031;-17
2023/07/07 12:36:28;;;;;;;2.47;2.15;;;40.00;35.40;;;;;;4926628;28;20037;-17
2023/07/07 12:39:00;;;;;;;2.73;2.53;;;40.00;34.60;;;;;;4963874;28;20736;-17
2023/07/07 12:41:28;;;;;;;2.72;2.40;;;40.00;34.90;;;;;;4945404;28;20041;-17
2023/07/07 12:44:04;;;;;;;3.30;2.50;;;40.00;34.60;;;;;;4968195;28;20700;-17
2023/07/07 12:46:33;;;;;;;2.65;2.20;;;39.90;34.20;;;;;;4958690;28;20224;-17
2023/07/07 12:49:04;;;;;;;2.60;2.40;;;39.90;34.40;;;;;;4958546;28;20058;-18
2023/07/07 12:51:32;;;;;;;2.77;2.57;;;39.80;34.30;;;;;;4953746;28;20248;-17
2023/07/07 12:53:58;;;;;;;3.05;2.50;;;39.80;34.40;;;;;;4966619;28;20238;-18
2023/07/07 12:56:31;;;;;;;3.40;2.40;;;39.80;34.40;;;;;;4970492;28;20057;-18
2023/07/07 12:58:59;;;;;;;2.88;2.58;;;39.90;33.80;;;;;;4942880;28;20080;-17
2023/07/07 13:01:37;;;;;;;3.10;2.53;;;39.90;34.40;;;;;;4966477;28;20773;-17
2023/07/07 13:04:08;;;;;;;2.60;2.40;;;39.90;33.70;;;;;;4956385;28;20026;-18
2023/07/07 13:06:36;;;;;;;2.88;2.40;;;39.90;33.50;;;;;;4950775;28;20041;-17
2023/07/07 13:09:02;;;;;;;2.42;2.10;;;39.90;33.50;;;;;;4965109;28;20034;-17